This is the latest recevied weather packets stored in our database for station/object OE-11007. If no packets are shown the sender has not sent any weather packets the latest 10 day(s).
| Time | Temp. | Humidity | Pressure | Rain* | Wind** | Luminosity | Snow |
|---|---|---|---|---|---|---|---|
| 1787886309 | 18.89° C | 74% | 1012.2 hPa | 0 mm | - | 0 W/m² | - |
| 1787885711 | 18.33° C | 77% | 1012.3 hPa | 0 mm | - | 0 W/m² | - |
| 1787884884 | 18.89° C | 74% | 1012.1 hPa | 0 mm | - | 0 W/m² | - |
| 1787884511 | 18.33° C | 76% | 1012.3 hPa | 0 mm | - | 0 W/m² | - |
| 1787883911 | 18.33° C | 76% | 1012.4 hPa | 0 mm | - | 0 W/m² | - |
| 1787883084 | 19.44° C | 72% | 1012.3 hPa | 0 mm | - | 0 W/m² | - |
| 1787882711 | 19.44° C | 72% | 1012.1 hPa | 0 mm | - | 0 W/m² | - |
| 1787882108 | 19.44° C | 71% | 1012 hPa | 0 mm | - | 0 W/m² | - |
| 1787881284 | 20° C | 70% | 1011.9 hPa | 0 mm | - | 0 W/m² | - |
| 1787880911 | 20° C | 70% | 1011.8 hPa | 0 mm | - | 0 W/m² | - |
| 1787880311 | 19.44° C | 71% | 1011.9 hPa | 0 mm | - | 0 W/m² | - |
| 1787879483 | 20° C | 69% | 1011.9 hPa | 0 mm | - | 0 W/m² | - |
| 1787879110 | 20° C | 69% | 1012 hPa | 0 mm | - | 0 W/m² | - |
| 1787878511 | 21.11° C | 65% | 1011.7 hPa | 0 mm | - | 0 W/m² | - |
| 1787877683 | 21.67° C | 63% | 1011.4 hPa | 0 mm | - | 0 W/m² | - |
| 1787877311 | 21.67° C | 64% | 1011.6 hPa | 0 mm | - | 0 W/m² | - |
| 1787876711 | 21.67° C | 62% | 1011.7 hPa | 0 mm | - | 0 W/m² | - |
| 1787875883 | 21.67° C | 63% | 1011.7 hPa | 0 mm | - | 0 W/m² | - |
| 1787875510 | 21.67° C | 63% | 1011.6 hPa | 0 mm | - | 0 W/m² | - |
| 1787874911 | 21.67° C | 62% | 1011.7 hPa | 0 mm | - | 0 W/m² | - |
| 1787874083 | 21.67° C | 63% | 1011.9 hPa | 0 mm | - | 0 W/m² | - |
| 1787873711 | 21.67° C | 63% | 1012.2 hPa | 0 mm | - | 0 W/m² | - |
| 1787873110 | 21.67° C | 64% | 1012.2 hPa | 0 mm | - | 0 W/m² | - |
| 1787872511 | 21.67° C | 64% | 1012.3 hPa | 0 mm | - | 0 W/m² | - |
| 1787871910 | 21.67° C | 64% | 1012.5 hPa | 0 mm | - | 0 W/m² | - |
* Rain latest hour (hover to see other rain measurements)
** Current wind speed in m/s (hover to see current wind gust speed)